createdAt,value
2018-04-01T00:00:01.645Z,6.30
2018-04-01T00:01:01.640Z,6.30
2018-04-01T00:02:01.634Z,5.70
2018-04-01T00:03:01.630Z,5.30
2018-04-01T00:04:01.623Z,5.80
2018-04-01T00:05:01.619Z,5.90
2018-04-01T00:06:01.614Z,5.70
2018-04-01T00:07:01.608Z,6.20
2018-04-01T00:08:01.604Z,5.90
2018-04-01T00:09:01.598Z,5.50
2018-04-01T00:10:01.594Z,5.50
2018-04-01T00:11:01.590Z,5.50
2018-04-01T00:12:01.584Z,5.50
2018-04-01T00:13:01.578Z,4.80
2018-04-01T00:14:01.574Z,5.90
2018-04-01T00:15:01.569Z,5.50
2018-04-01T00:16:01.564Z,5.90
2018-04-01T00:17:01.559Z,5.50
2018-04-01T00:18:01.554Z,5.30
2018-04-01T00:19:01.549Z,5.90
2018-04-01T00:20:01.550Z,6.40
2018-04-01T00:21:01.539Z,5.90
2018-04-01T00:22:01.535Z,5.80
2018-04-01T00:23:01.530Z,6.10
2018-04-01T00:24:01.527Z,6.50
2018-04-01T00:25:01.520Z,5.70
2018-04-01T00:26:01.515Z,5.30
2018-04-01T00:27:01.511Z,5.60
2018-04-01T00:28:01.504Z,5.90
2018-04-01T00:29:01.500Z,5.80
2018-04-01T00:30:01.495Z,6.00
2018-04-01T00:31:01.489Z,5.90
2018-04-01T00:32:01.485Z,7.20
2018-04-01T00:33:01.481Z,5.70
2018-04-01T00:34:01.475Z,5.90
2018-04-01T00:35:01.471Z,5.50
2018-04-01T00:36:01.469Z,7.00
2018-04-01T00:37:01.460Z,6.00
2018-04-01T00:38:01.456Z,4.80
2018-04-01T00:39:01.451Z,4.80
2018-04-01T00:40:01.446Z,5.00
2018-04-01T00:41:01.440Z,4.90
2018-04-01T00:42:01.436Z,5.10
2018-04-01T00:43:01.433Z,5.00
2018-04-01T00:44:01.425Z,5.40
2018-04-01T00:45:01.422Z,4.70
2018-04-01T00:46:01.415Z,5.50
2018-04-01T00:47:01.413Z,5.50
2018-04-01T00:48:01.405Z,5.20
2018-04-01T00:49:01.406Z,5.00
2018-04-01T00:50:01.396Z,5.20
2018-04-01T00:51:01.392Z,5.30
2018-04-01T00:52:01.387Z,5.80
2018-04-01T00:53:01.384Z,5.60
2018-04-01T00:54:01.378Z,5.30
2018-04-01T00:55:01.374Z,5.40
2018-04-01T00:56:01.368Z,5.30
2018-04-01T00:57:01.362Z,5.40
2018-04-01T00:58:01.358Z,5.00
2018-04-01T00:59:01.353Z,5.60
2018-04-01T01:00:01.347Z,5.70
2018-04-01T01:01:01.346Z,4.90
2018-04-01T01:02:01.337Z,5.70
2018-04-01T01:03:01.334Z,5.00
2018-04-01T01:04:01.328Z,5.80
2018-04-01T01:05:01.323Z,5.60
2018-04-01T01:06:01.318Z,5.50
2018-04-01T01:07:01.316Z,5.40
2018-04-01T01:08:01.308Z,6.20
2018-04-01T01:09:01.306Z,6.30
2018-04-01T01:10:01.299Z,6.10
2018-04-01T01:11:01.295Z,6.10
2018-04-01T01:12:01.292Z,5.70
2018-04-01T01:13:01.284Z,6.20
2018-04-01T01:14:01.285Z,5.50
2018-04-01T01:15:01.276Z,5.50
2018-04-01T01:16:01.272Z,6.30
2018-04-01T01:17:01.266Z,6.30
2018-04-01T01:18:01.315Z,6.50
2018-04-01T01:19:01.257Z,5.70
2018-04-01T01:20:01.254Z,6.70
2018-04-01T01:21:01.247Z,5.10
2018-04-01T01:22:01.247Z,5.50
2018-04-01T01:23:01.237Z,6.00
2018-04-01T01:24:01.233Z,7.00
2018-04-01T01:25:01.227Z,7.10
2018-04-01T01:26:01.224Z,7.20
2018-04-01T01:27:01.219Z,5.60
2018-04-01T01:28:01.215Z,6.60
2018-04-01T01:29:01.209Z,5.80
2018-04-01T01:30:01.205Z,6.60
2018-04-01T01:31:01.200Z,6.00
2018-04-01T01:32:01.193Z,6.30
2018-04-01T01:33:01.190Z,5.70
2018-04-01T01:34:01.185Z,5.40
2018-04-01T01:35:01.181Z,5.50
2018-04-01T01:36:01.175Z,6.40
2018-04-01T01:37:01.172Z,6.70
2018-04-01T01:38:01.167Z,6.80
2018-04-01T01:39:01.161Z,5.60
2018-04-01T01:40:01.156Z,4.70
2018-04-01T01:41:01.152Z,5.10
2018-04-01T01:42:01.152Z,4.80
2018-04-01T01:43:01.148Z,5.10
2018-04-01T01:44:01.136Z,5.10
2018-04-01T01:45:01.131Z,4.30
2018-04-01T01:46:01.127Z,4.50
2018-04-01T01:47:01.123Z,4.80
2018-04-01T01:48:01.117Z,5.10
2018-04-01T01:49:01.113Z,5.10
2018-04-01T01:50:01.107Z,5.10
2018-04-01T01:51:01.104Z,4.40
2018-04-01T01:52:01.100Z,4.70
2018-04-01T01:53:01.092Z,5.00
2018-04-01T01:54:01.088Z,4.60
2018-04-01T01:55:01.084Z,4.30
2018-04-01T01:56:01.079Z,4.90
2018-04-01T01:57:01.072Z,4.30
2018-04-01T01:58:01.084Z,3.90
2018-04-01T01:59:01.066Z,4.50
2018-04-01T02:00:01.057Z,3.80
2018-04-01T02:01:01.052Z,3.80
2018-04-01T02:02:01.048Z,4.30
2018-04-01T02:03:01.044Z,3.90
2018-04-01T02:04:01.036Z,4.00
2018-04-01T02:05:01.032Z,4.30
2018-04-01T02:06:01.028Z,3.70
2018-04-01T02:07:01.023Z,3.90
2018-04-01T02:08:01.017Z,4.10
2018-04-01T02:09:01.012Z,3.90
2018-04-01T02:10:01.016Z,3.80
2018-04-01T02:11:01.001Z,3.30
2018-04-01T02:12:00.996Z,3.80
2018-04-01T02:13:00.989Z,3.60
2018-04-01T02:14:00.984Z,4.20
2018-04-01T02:15:00.979Z,3.80
2018-04-01T02:16:00.979Z,3.70
2018-04-01T02:17:00.969Z,3.70
2018-04-01T02:18:00.963Z,3.30
2018-04-01T02:19:00.958Z,3.80
2018-04-01T02:20:00.952Z,3.70
2018-04-01T02:21:00.948Z,4.40
2018-04-01T02:22:00.943Z,3.40
2018-04-01T02:23:00.938Z,3.20
2018-04-01T02:24:00.932Z,3.10
2018-04-01T02:25:00.928Z,3.20
2018-04-01T02:26:00.925Z,3.40
2018-04-01T02:27:00.915Z,3.00
2018-04-01T02:28:00.910Z,3.00
2018-04-01T02:29:00.905Z,3.50
2018-04-01T02:30:00.899Z,4.20
2018-04-01T02:31:00.894Z,3.90
2018-04-01T02:32:00.889Z,4.00
2018-04-01T02:33:00.890Z,3.40
2018-04-01T02:34:00.880Z,4.00
2018-04-01T02:35:00.872Z,4.30
2018-04-01T02:36:00.867Z,4.70
2018-04-01T02:37:00.860Z,4.90
2018-04-01T02:38:00.859Z,4.80
2018-04-01T02:39:00.852Z,4.60
2018-04-01T02:40:00.846Z,4.60
2018-04-01T02:41:00.847Z,4.70
2018-04-01T02:42:00.836Z,4.10
2018-04-01T02:43:00.831Z,5.10
2018-04-01T02:44:00.825Z,3.90
2018-04-01T02:45:00.822Z,5.10
2018-04-01T02:46:00.815Z,5.00
2018-04-01T02:47:00.809Z,5.90
2018-04-01T02:48:00.805Z,6.30
2018-04-01T02:49:00.800Z,6.10
2018-04-01T02:50:00.795Z,7.20
2018-04-01T02:51:00.791Z,7.90
2018-04-01T02:52:00.783Z,7.50
2018-04-01T02:53:00.779Z,6.10
2018-04-01T02:54:00.774Z,5.80
2018-04-01T02:55:00.768Z,5.90
2018-04-01T02:56:00.761Z,6.20
2018-04-01T02:57:00.760Z,6.70
2018-04-01T02:58:00.757Z,5.60
2018-04-01T02:59:00.750Z,6.00
2018-04-01T03:00:00.749Z,4.70
2018-04-01T03:01:00.738Z,5.20
2018-04-01T03:02:00.737Z,4.20
2018-04-01T03:03:00.732Z,4.00
2018-04-01T03:04:00.723Z,4.30
2018-04-01T03:05:00.721Z,3.90
2018-04-01T03:06:00.714Z,3.60
2018-04-01T03:07:00.708Z,3.80
2018-04-01T03:08:00.703Z,4.00
2018-04-01T03:09:00.696Z,4.40
2018-04-01T03:10:00.697Z,3.60
2018-04-01T03:11:00.690Z,3.80
2018-04-01T03:12:00.682Z,3.80
2018-04-01T03:13:00.677Z,3.90
2018-04-01T03:14:00.673Z,4.70
2018-04-01T03:15:00.667Z,3.60
2018-04-01T03:16:00.660Z,3.90
2018-04-01T03:17:00.657Z,4.00
2018-04-01T03:18:00.653Z,3.30
2018-04-01T03:19:00.647Z,3.80
2018-04-01T03:20:00.641Z,4.00
2018-04-01T03:21:00.637Z,3.60
2018-04-01T03:22:00.632Z,3.40
2018-04-01T03:23:00.627Z,3.40
2018-04-01T03:24:00.621Z,3.30
2018-04-01T03:25:00.616Z,3.90
2018-04-01T03:26:00.614Z,3.60
2018-04-01T03:27:00.607Z,3.30
2018-04-01T03:28:00.602Z,3.50
2018-04-01T03:29:00.598Z,3.50
2018-04-01T03:30:00.597Z,3.40
2018-04-01T03:31:00.589Z,3.60
2018-04-01T03:32:00.587Z,4.00
2018-04-01T03:33:00.578Z,3.70
2018-04-01T03:34:00.574Z,4.00
2018-04-01T03:35:00.568Z,4.00
2018-04-01T03:36:00.563Z,4.10
2018-04-01T03:37:00.557Z,4.00
2018-04-01T03:38:00.552Z,3.80
2018-04-01T03:39:00.547Z,3.60
2018-04-01T03:40:00.543Z,4.10
2018-04-01T03:41:00.538Z,3.60
2018-04-01T03:42:00.534Z,4.20
2018-04-01T03:43:00.528Z,4.00
2018-04-01T03:44:00.522Z,4.00
2018-04-01T03:45:00.518Z,3.70
2018-04-01T03:46:00.556Z,4.20
2018-04-01T03:47:00.508Z,4.30
2018-04-01T03:48:00.502Z,4.20
2018-04-01T03:49:00.497Z,3.90
2018-04-01T03:50:00.491Z,3.80
2018-04-01T03:51:00.487Z,4.30
2018-04-01T03:52:00.481Z,4.00
2018-04-01T03:53:00.476Z,3.50
2018-04-01T03:54:00.472Z,4.00
2018-04-01T03:55:00.465Z,4.10
2018-04-01T03:56:00.460Z,4.00
2018-04-01T03:57:00.455Z,4.20
2018-04-01T03:58:00.449Z,3.80
2018-04-01T03:59:00.444Z,3.70
2018-04-01T04:00:00.437Z,4.00
2018-04-01T04:01:00.433Z,3.90
2018-04-01T04:02:00.429Z,3.60
2018-04-01T04:03:00.423Z,3.90
2018-04-01T04:04:00.417Z,5.50
2018-04-01T04:05:00.412Z,8.10
2018-04-01T04:06:00.406Z,9.60
2018-04-01T04:07:00.400Z,11.30
2018-04-01T04:08:00.396Z,10.70
2018-04-01T04:09:00.391Z,9.10
2018-04-01T04:10:00.384Z,6.60
2018-04-01T04:11:00.389Z,4.90
2018-04-01T04:12:00.371Z,3.90
2018-04-01T04:13:00.367Z,3.80
2018-04-01T04:14:00.362Z,3.60
2018-04-01T04:15:00.361Z,3.40
2018-04-01T04:16:00.349Z,3.50
2018-04-01T04:17:00.344Z,3.80
2018-04-01T04:18:00.340Z,3.70
2018-04-01T04:19:00.333Z,3.80
2018-04-01T04:20:00.329Z,3.40
2018-04-01T04:21:00.321Z,3.40
2018-04-01T04:22:00.317Z,3.40
2018-04-01T04:23:00.310Z,3.70
2018-04-01T04:24:00.304Z,3.50
2018-04-01T04:25:00.299Z,3.20
2018-04-01T04:26:00.292Z,3.80
2018-04-01T04:27:00.288Z,3.60
2018-04-01T04:28:00.282Z,3.50
2018-04-01T04:29:00.276Z,3.60
2018-04-01T04:30:00.270Z,3.90
2018-04-01T04:31:00.264Z,4.00
2018-04-01T04:32:00.258Z,3.50
2018-04-01T04:33:00.251Z,4.10
2018-04-01T04:34:00.247Z,3.80
2018-04-01T04:35:00.240Z,3.70
2018-04-01T04:36:00.233Z,3.80
2018-04-01T04:37:00.227Z,4.10
2018-04-01T04:38:00.221Z,4.40
2018-04-01T04:39:00.216Z,3.90
2018-04-01T04:40:00.209Z,4.80
2018-04-01T04:41:00.206Z,4.10
2018-04-01T04:42:00.198Z,3.80
2018-04-01T04:43:00.192Z,4.10
2018-04-01T04:44:00.184Z,4.20
2018-04-01T04:45:00.185Z,4.40
2018-04-01T04:46:00.174Z,4.50
2018-04-01T04:47:00.169Z,4.50
2018-04-01T04:48:00.161Z,3.70
2018-04-01T04:49:00.156Z,4.30
2018-04-01T04:50:00.150Z,4.10
2018-04-01T04:51:00.143Z,4.20
2018-04-01T04:52:00.138Z,3.50
2018-04-01T04:53:00.132Z,3.80
2018-04-01T04:54:00.129Z,3.20
2018-04-01T04:55:00.119Z,3.40
2018-04-01T04:56:00.113Z,3.30
2018-04-01T04:57:00.108Z,3.30
2018-04-01T04:58:00.101Z,3.50
2018-04-01T04:59:00.096Z,3.10
2018-04-01T05:00:00.089Z,2.70
2018-04-01T05:01:00.083Z,2.70
2018-04-01T05:02:00.077Z,2.80
2018-04-01T05:03:00.073Z,3.10
2018-04-01T05:04:00.065Z,3.40
2018-04-01T05:05:00.058Z,3.30
2018-04-01T05:06:00.052Z,3.00
2018-04-01T05:07:00.045Z,3.00
2018-04-01T05:08:00.039Z,2.90
2018-04-01T05:09:00.034Z,3.10
2018-04-01T05:10:00.027Z,3.40
2018-04-01T05:11:00.022Z,3.00
2018-04-01T05:12:00.015Z,2.80
2018-04-01T05:13:00.008Z,3.20
2018-04-01T05:14:00.010Z,3.00
2018-04-01T05:14:59.996Z,3.00
2018-04-01T05:15:59.991Z,2.70
2018-04-01T05:16:59.983Z,2.70
2018-04-01T05:17:59.979Z,2.40
2018-04-01T05:18:59.972Z,2.70
2018-04-01T05:19:59.965Z,2.40
2018-04-01T05:20:59.960Z,2.60
2018-04-01T05:21:59.954Z,2.80
2018-04-01T05:22:59.948Z,2.30
2018-04-01T05:23:59.941Z,2.70
2018-04-01T05:24:59.936Z,2.40
2018-04-01T05:25:59.931Z,2.30
2018-04-01T05:26:59.924Z,2.80
2018-04-01T05:27:59.917Z,2.60
2018-04-01T05:28:59.912Z,2.90
2018-04-01T05:29:59.906Z,2.30
2018-04-01T05:30:59.899Z,2.40
2018-04-01T05:31:59.893Z,2.70
2018-04-01T05:32:59.888Z,2.70
2018-04-01T05:33:59.882Z,2.70
2018-04-01T05:34:59.875Z,2.50
2018-04-01T05:35:59.871Z,2.70
2018-04-01T05:36:59.863Z,3.00
2018-04-01T05:37:59.859Z,2.90
2018-04-01T05:38:59.852Z,2.50
2018-04-01T05:39:59.845Z,2.90
2018-04-01T05:40:59.841Z,2.90
2018-04-01T05:41:59.838Z,2.70
2018-04-01T05:42:59.829Z,2.50
2018-04-01T05:43:59.821Z,2.40
2018-04-01T05:44:59.816Z,2.60
2018-04-01T05:45:59.810Z,2.50
2018-04-01T05:46:59.806Z,2.60
2018-04-01T05:47:59.798Z,2.60
2018-04-01T05:48:59.791Z,2.10
2018-04-01T05:49:59.787Z,2.50
2018-04-01T05:50:59.780Z,2.00
2018-04-01T05:51:59.773Z,2.20
2018-04-01T05:52:59.768Z,2.50
2018-04-01T05:53:59.762Z,2.10
2018-04-01T05:54:59.758Z,2.00
2018-04-01T05:55:59.750Z,2.00
2018-04-01T05:56:59.745Z,1.90
2018-04-01T05:57:59.740Z,1.80
2018-04-01T05:58:59.736Z,2.10
2018-04-01T05:59:59.727Z,1.80
2018-04-01T06:00:59.720Z,2.00
2018-04-01T06:01:59.715Z,1.70
2018-04-01T06:02:59.709Z,2.30
2018-04-01T06:03:59.703Z,2.10
2018-04-01T06:04:59.696Z,2.20
2018-04-01T06:05:59.690Z,2.20
2018-04-01T06:06:59.684Z,2.10
2018-04-01T06:07:59.681Z,2.00
2018-04-01T06:08:59.672Z,2.50
2018-04-01T06:09:59.666Z,2.40
2018-04-01T06:10:59.661Z,2.00
2018-04-01T06:11:59.655Z,2.10
2018-04-01T06:12:59.648Z,2.10
2018-04-01T06:13:59.641Z,2.30
2018-04-01T06:14:59.637Z,2.20
2018-04-01T06:15:59.637Z,2.50
2018-04-01T06:16:59.624Z,2.10
2018-04-01T06:17:59.618Z,2.50
2018-04-01T06:18:59.612Z,2.40
2018-04-01T06:19:59.606Z,2.70
2018-04-01T06:20:59.598Z,2.50
2018-04-01T06:21:59.594Z,2.50
2018-04-01T06:22:59.589Z,2.70
2018-04-01T06:23:59.581Z,2.60
2018-04-01T06:24:59.576Z,2.50
2018-04-01T06:25:59.570Z,2.20
2018-04-01T06:26:59.580Z,2.40
2018-04-01T06:27:59.562Z,2.90
2018-04-01T06:28:59.550Z,2.10
2018-04-01T06:29:59.550Z,2.20
2018-04-01T06:30:59.539Z,2.50
2018-04-01T06:31:59.534Z,2.80
2018-04-01T06:32:59.528Z,2.70
2018-04-01T06:33:59.525Z,2.50
2018-04-01T06:34:59.516Z,2.20
2018-04-01T06:35:59.511Z,2.40
2018-04-01T06:36:59.504Z,2.50
2018-04-01T06:37:59.506Z,2.50
2018-04-01T06:38:59.492Z,2.90
2018-04-01T06:39:59.553Z,2.60
2018-04-01T06:40:59.481Z,2.10
2018-04-01T06:41:59.476Z,2.50
2018-04-01T06:42:59.475Z,2.90
2018-04-01T06:43:59.464Z,2.30
2018-04-01T06:44:59.458Z,2.90
2018-04-01T06:45:59.453Z,2.90
2018-04-01T06:46:59.447Z,2.60
2018-04-01T06:47:59.440Z,2.70
2018-04-01T06:48:59.436Z,2.40
2018-04-01T06:49:59.431Z,2.80
2018-04-01T06:50:59.425Z,2.70
2018-04-01T06:51:59.420Z,2.50
2018-04-01T06:52:59.415Z,2.40
2018-04-01T06:53:59.408Z,2.60
2018-04-01T06:54:59.403Z,2.80
2018-04-01T06:55:59.396Z,2.90
2018-04-01T06:56:59.402Z,2.40
2018-04-01T06:57:59.386Z,2.20
2018-04-01T06:58:59.384Z,2.30
2018-04-01T06:59:59.376Z,2.50
2018-04-01T07:00:59.371Z,2.30
2018-04-01T07:01:59.366Z,1.90
2018-04-01T07:02:59.361Z,2.40
2018-04-01T07:03:59.353Z,2.20
2018-04-01T07:04:59.350Z,2.20
2018-04-01T07:05:59.349Z,1.80
2018-04-01T07:06:59.338Z,1.90
2018-04-01T07:07:59.332Z,1.50
2018-04-01T07:08:59.326Z,1.60
2018-04-01T07:09:59.326Z,2.10
2018-04-01T07:10:59.317Z,1.70
2018-04-01T07:11:59.311Z,1.80
2018-04-01T07:12:59.306Z,1.60
2018-04-01T07:13:59.298Z,1.70
2018-04-01T07:14:59.294Z,1.70
2018-04-01T07:15:59.287Z,1.40
2018-04-01T07:16:59.282Z,1.70
2018-04-01T07:17:59.276Z,1.80
2018-04-01T07:18:59.271Z,2.70
2018-04-01T07:19:59.265Z,2.60
2018-04-01T07:20:59.260Z,1.60
2018-04-01T07:21:59.254Z,1.30
2018-04-01T07:22:59.250Z,1.50
2018-04-01T07:23:59.244Z,1.60
2018-04-01T07:24:59.238Z,1.50
2018-04-01T07:25:59.233Z,1.50
2018-04-01T07:26:59.227Z,1.30
2018-04-01T07:27:59.221Z,1.50
2018-04-01T07:28:59.216Z,1.40
2018-04-01T07:29:59.209Z,1.20
2018-04-01T07:30:59.206Z,1.50
2018-04-01T07:31:59.198Z,1.40
2018-04-01T07:32:59.193Z,1.20
2018-04-01T07:33:59.188Z,1.30
2018-04-01T07:34:59.181Z,1.30
2018-04-01T07:35:59.175Z,1.50
2018-04-01T07:36:59.169Z,1.50
2018-04-01T07:37:59.165Z,1.10
2018-04-01T07:38:59.159Z,1.20
2018-04-01T07:39:59.153Z,1.40
2018-04-01T07:40:59.147Z,1.40
2018-04-01T07:41:59.141Z,1.50
2018-04-01T07:42:59.135Z,1.40
2018-04-01T07:43:59.131Z,1.40
2018-04-01T07:44:59.124Z,1.50
2018-04-01T07:45:59.119Z,1.60
2018-04-01T07:46:59.113Z,1.70
2018-04-01T07:47:59.106Z,1.60
2018-04-01T07:48:59.103Z,1.40
2018-04-01T07:49:59.094Z,1.60
2018-04-01T07:50:59.089Z,1.70
2018-04-01T07:51:59.082Z,1.50
2018-04-01T07:52:59.076Z,1.70
2018-04-01T07:53:59.072Z,1.50
2018-04-01T07:54:59.065Z,1.70
2018-04-01T07:55:59.059Z,1.80
2018-04-01T07:56:59.054Z,2.00
2018-04-01T07:57:59.049Z,1.70
2018-04-01T07:58:59.042Z,1.80
2018-04-01T07:59:59.035Z,2.00
2018-04-01T08:00:59.030Z,1.70
2018-04-01T08:01:59.025Z,1.70
2018-04-01T08:02:59.020Z,1.70
2018-04-01T08:03:59.012Z,1.90
2018-04-01T08:04:59.007Z,1.60
2018-04-01T08:05:59.001Z,1.90
2018-04-01T08:06:58.995Z,1.60
2018-04-01T08:07:58.990Z,1.50
2018-04-01T08:08:58.990Z,1.80
2018-04-01T08:09:58.978Z,1.70
2018-04-01T08:10:58.973Z,1.90
2018-04-01T08:11:58.965Z,1.60
2018-04-01T08:12:58.960Z,1.80
2018-04-01T08:13:58.954Z,1.60
2018-04-01T08:14:58.952Z,1.80
2018-04-01T08:15:58.942Z,1.70
2018-04-01T08:16:58.937Z,1.70
2018-04-01T08:17:58.930Z,1.70
2018-04-01T08:18:58.925Z,1.30
2018-04-01T08:19:58.917Z,1.60
2018-04-01T08:20:58.911Z,1.90
2018-04-01T08:21:58.907Z,1.60
2018-04-01T08:22:58.901Z,1.50
2018-04-01T08:23:58.894Z,1.60
2018-04-01T08:24:58.889Z,1.60
2018-04-01T08:25:58.883Z,1.50
2018-04-01T08:26:58.881Z,1.80
2018-04-01T08:27:58.870Z,1.60
2018-04-01T08:28:58.865Z,1.90
2018-04-01T08:29:58.859Z,1.90
2018-04-01T08:30:58.853Z,1.80
2018-04-01T08:31:58.848Z,1.70
2018-04-01T08:32:58.843Z,1.90
2018-04-01T08:33:58.837Z,1.50
2018-04-01T08:34:58.831Z,1.50
2018-04-01T08:35:58.828Z,1.80
2018-04-01T08:36:58.819Z,1.40
2018-04-01T08:37:58.815Z,1.40
2018-04-01T08:38:58.808Z,1.50
2018-04-01T08:39:58.803Z,1.40
2018-04-01T08:40:58.797Z,1.40
2018-04-01T08:41:58.793Z,1.50
2018-04-01T08:42:58.790Z,1.50
2018-04-01T08:43:58.783Z,1.40
2018-04-01T08:44:58.776Z,2.00
2018-04-01T08:45:58.769Z,1.70
2018-04-01T08:46:58.765Z,1.80
2018-04-01T08:47:58.759Z,1.50
2018-04-01T08:48:58.754Z,1.20
2018-04-01T08:49:58.747Z,1.40
2018-04-01T08:50:58.744Z,1.80
2018-04-01T08:51:58.737Z,1.50
2018-04-01T08:52:58.731Z,1.20
2018-04-01T08:53:58.726Z,1.40
2018-04-01T08:54:58.721Z,1.50
2018-04-01T08:55:58.714Z,1.30
2018-04-01T08:56:58.712Z,1.10
2018-04-01T08:57:58.704Z,1.70
2018-04-01T08:58:58.698Z,1.20
2018-04-01T08:59:58.694Z,1.50
2018-04-01T09:00:58.689Z,1.50
2018-04-01T09:01:58.684Z,1.50
2018-04-01T09:02:58.678Z,1.20
2018-04-01T09:03:58.673Z,1.20
2018-04-01T09:04:58.666Z,1.20
2018-04-01T09:05:58.663Z,1.20
2018-04-01T09:06:58.658Z,1.40
2018-04-01T09:07:58.653Z,1.40
2018-04-01T09:08:58.648Z,1.50
2018-04-01T09:09:58.641Z,1.50
2018-04-01T09:10:58.642Z,1.40
2018-04-01T09:11:58.632Z,1.50
2018-04-01T09:12:58.626Z,1.50
2018-04-01T09:13:58.621Z,1.40
2018-04-01T09:14:58.617Z,1.10
2018-04-01T09:15:58.611Z,1.20
2018-04-01T09:16:58.620Z,1.40
2018-04-01T09:17:58.602Z,1.30
2018-04-01T09:18:58.601Z,2.00
2018-04-01T09:19:58.597Z,2.20
2018-04-01T09:20:58.587Z,2.10
2018-04-01T09:21:58.585Z,2.20
2018-04-01T09:22:58.578Z,1.90
2018-04-01T09:23:58.573Z,1.60
2018-04-01T09:24:58.567Z,1.60
2018-04-01T09:25:58.564Z,1.60
2018-04-01T09:26:58.558Z,1.50
2018-04-01T09:27:58.552Z,1.60
2018-04-01T09:28:58.548Z,1.40
2018-04-01T09:29:58.544Z,1.60
2018-04-01T09:30:58.541Z,1.40
2018-04-01T09:31:58.577Z,1.40
2018-04-01T09:32:58.532Z,1.60
2018-04-01T09:33:58.524Z,1.40
2018-04-01T09:34:58.522Z,2.00
2018-04-01T09:35:58.516Z,1.90
2018-04-01T09:36:58.581Z,1.80
2018-04-01T09:37:58.533Z,1.70
2018-04-01T09:38:58.524Z,1.80
2018-04-01T09:39:58.495Z,1.50
2018-04-01T09:40:58.491Z,1.30
2018-04-01T09:41:58.493Z,1.10
2018-04-01T09:42:58.483Z,1.20
2018-04-01T09:43:58.519Z,1.20
2018-04-01T09:44:58.475Z,1.30
2018-04-01T09:45:58.470Z,1.50
2018-04-01T09:46:58.464Z,1.30
2018-04-01T09:47:58.459Z,1.90
2018-04-01T09:48:58.455Z,2.20
2018-04-01T09:49:58.500Z,1.60
2018-04-01T09:50:58.445Z,1.20
2018-04-01T09:51:58.441Z,1.30
2018-04-01T09:52:58.456Z,1.20
2018-04-01T09:53:58.431Z,1.30
2018-04-01T09:54:58.428Z,1.40
2018-04-01T09:55:58.424Z,1.30
2018-04-01T09:56:58.419Z,1.20
2018-04-01T09:57:58.414Z,1.20
2018-04-01T09:58:58.411Z,1.80
2018-04-01T09:59:58.404Z,1.80
2018-04-01T10:00:58.401Z,1.90
2018-04-01T10:01:58.397Z,1.70
2018-04-01T10:02:58.393Z,1.30
2018-04-01T10:03:58.388Z,1.60
2018-04-01T10:04:58.384Z,1.60
2018-04-01T10:05:58.380Z,0.90
2018-04-01T10:06:58.377Z,0.90
2018-04-01T10:07:58.373Z,0.90
2018-04-01T10:08:58.369Z,1.00
2018-04-01T10:09:58.365Z,1.00
2018-04-01T10:10:58.362Z,1.20
2018-04-01T10:11:58.357Z,1.10
2018-04-01T10:12:58.354Z,1.00
2018-04-01T10:13:58.349Z,0.90
2018-04-01T10:14:58.345Z,0.90
2018-04-01T10:15:58.341Z,1.00
2018-04-01T10:16:58.337Z,1.20
2018-04-01T10:17:58.334Z,0.90
2018-04-01T10:18:58.332Z,0.90
2018-04-01T10:19:58.335Z,1.00
2018-04-01T10:20:58.343Z,1.10
2018-04-01T10:21:58.321Z,0.90
2018-04-01T10:22:58.318Z,1.10
2018-04-01T10:23:58.313Z,1.20
2018-04-01T10:24:58.310Z,1.30
2018-04-01T10:25:58.308Z,0.90
2018-04-01T10:26:58.303Z,1.00
2018-04-01T10:27:58.299Z,1.00
2018-04-01T10:28:58.300Z,0.90
2018-04-01T10:29:58.292Z,0.90
2018-04-01T10:30:58.290Z,0.90
2018-04-01T10:31:58.285Z,1.00
2018-04-01T10:32:58.283Z,1.00
2018-04-01T10:33:58.319Z,0.80
2018-04-01T10:34:58.285Z,1.00
2018-04-01T10:35:58.272Z,1.00
2018-04-01T10:36:58.268Z,0.80
2018-04-01T10:37:58.314Z,0.90
2018-04-01T10:38:58.262Z,0.80
2018-04-01T10:39:58.258Z,1.00
2018-04-01T10:40:58.254Z,1.40
2018-04-01T10:41:58.253Z,4.60
2018-04-01T10:42:58.250Z,2.20
2018-04-01T10:43:58.245Z,0.80
2018-04-01T10:44:58.242Z,0.90
2018-04-01T10:45:58.240Z,0.80
2018-04-01T10:46:58.237Z,1.80
2018-04-01T10:47:58.235Z,1.90
2018-04-01T10:48:58.232Z,1.20
2018-04-01T10:49:58.230Z,0.70
2018-04-01T10:50:58.228Z,0.80
2018-04-01T10:51:58.224Z,1.20
2018-04-01T10:52:58.222Z,1.10
2018-04-01T10:53:58.219Z,0.90
2018-04-01T10:54:58.240Z,0.70
2018-04-01T10:55:58.212Z,0.80
2018-04-01T10:56:58.213Z,1.00
2018-04-01T10:57:58.210Z,1.10
2018-04-01T10:58:58.210Z,0.90
2018-04-01T10:59:58.203Z,0.90
2018-04-01T11:00:58.201Z,0.80
2018-04-01T11:01:58.200Z,0.90
2018-04-01T11:02:58.197Z,0.90
2018-04-01T11:03:58.194Z,0.90
2018-04-01T11:04:58.192Z,0.90
2018-04-01T11:05:58.190Z,0.80
2018-04-01T11:06:58.190Z,0.90
2018-04-01T11:07:58.184Z,1.00
2018-04-01T11:08:58.180Z,0.80
2018-04-01T11:09:58.179Z,0.70
2018-04-01T11:10:58.176Z,0.80
2018-04-01T11:11:58.174Z,0.80
2018-04-01T11:12:58.169Z,0.80
2018-04-01T11:13:58.167Z,0.70
2018-04-01T11:14:58.165Z,1.00
2018-04-01T11:15:58.166Z,0.90
2018-04-01T11:16:58.168Z,1.00
2018-04-01T11:17:58.155Z,0.80
2018-04-01T11:18:58.154Z,0.80
2018-04-01T11:19:58.149Z,0.80
2018-04-01T11:20:58.148Z,0.90
2018-04-01T11:21:58.145Z,0.70
2018-04-01T11:22:58.142Z,0.90
2018-04-01T11:23:58.136Z,0.80
2018-04-01T11:24:58.134Z,0.90
2018-04-01T11:25:58.133Z,0.80
2018-04-01T11:26:58.129Z,0.90
2018-04-01T11:27:58.328Z,0.70
2018-04-01T11:28:58.121Z,0.70
2018-04-01T11:29:58.118Z,0.70
2018-04-01T11:30:58.116Z,0.90
2018-04-01T11:31:58.111Z,0.70
2018-04-01T11:32:58.110Z,0.60
2018-04-01T11:33:58.105Z,0.60
2018-04-01T11:34:58.102Z,0.60
2018-04-01T11:35:58.100Z,0.70
2018-04-01T11:36:58.095Z,0.70
2018-04-01T11:37:58.094Z,0.70
2018-04-01T11:38:58.091Z,0.70
2018-04-01T11:39:58.088Z,0.60
2018-04-01T11:40:58.087Z,0.70
2018-04-01T11:41:58.081Z,0.80
2018-04-01T11:42:58.079Z,0.80
2018-04-01T11:43:58.074Z,0.70
2018-04-01T11:44:58.072Z,0.80
2018-04-01T11:45:58.068Z,0.70
2018-04-01T11:46:58.066Z,0.70
2018-04-01T11:47:58.062Z,0.70
2018-04-01T11:48:58.060Z,0.70
2018-04-01T11:49:58.058Z,0.60
2018-04-01T11:50:58.115Z,0.70
2018-04-01T11:51:58.057Z,0.70
2018-04-01T11:52:58.048Z,0.90
2018-04-01T11:53:58.048Z,0.70
2018-04-01T11:54:58.044Z,0.70
2018-04-01T11:55:58.040Z,0.60
2018-04-01T11:56:58.037Z,0.70
2018-04-01T11:57:58.033Z,0.70
2018-04-01T11:58:58.044Z,0.70
2018-04-01T11:59:58.028Z,0.70
2018-04-01T12:00:58.025Z,0.80
2018-04-01T12:01:58.022Z,0.70
2018-04-01T12:02:58.061Z,1.10
2018-04-01T12:03:58.022Z,0.70
2018-04-01T12:04:58.017Z,0.70
2018-04-01T12:05:58.015Z,0.60
2018-04-01T12:06:58.012Z,0.70
2018-04-01T12:07:58.010Z,0.70
2018-04-01T12:08:58.056Z,0.60
2018-04-01T12:09:58.633Z,0.70
2018-04-01T12:10:58.007Z,0.80
2018-04-01T12:11:58.004Z,0.60
2018-04-01T12:12:58.002Z,0.70
2018-04-01T12:13:58.003Z,0.80
2018-04-01T12:14:58.003Z,0.80
2018-04-01T12:15:58.000Z,0.80
2018-04-01T12:16:57.995Z,0.90
2018-04-01T12:17:57.995Z,0.60
2018-04-01T12:18:57.998Z,0.60
2018-04-01T12:19:57.991Z,0.60
2018-04-01T12:20:57.989Z,0.80
2018-04-01T12:21:57.988Z,1.00
2018-04-01T12:22:57.988Z,0.90
2018-04-01T12:23:57.982Z,1.10
2018-04-01T12:24:57.980Z,0.90
2018-04-01T12:25:57.978Z,0.90
2018-04-01T12:26:57.976Z,0.80
2018-04-01T12:27:57.977Z,0.60
2018-04-01T12:28:57.972Z,0.70
2018-04-01T12:29:57.968Z,0.70
2018-04-01T12:30:57.965Z,0.60
2018-04-01T12:31:57.962Z,0.60
2018-04-01T12:32:57.965Z,0.70
2018-04-01T12:33:57.956Z,0.70
2018-04-01T12:34:57.953Z,0.70
2018-04-01T12:35:57.949Z,0.60
2018-04-01T12:36:57.948Z,0.60
2018-04-01T12:37:57.949Z,0.70
2018-04-01T12:38:57.941Z,0.60
2018-04-01T12:39:57.938Z,0.70
2018-04-01T12:40:57.935Z,0.70
2018-04-01T12:41:57.932Z,0.60
2018-04-01T12:42:57.931Z,0.70
2018-04-01T12:43:57.926Z,0.60
2018-04-01T12:44:57.922Z,0.70
2018-04-01T12:45:57.927Z,0.70
2018-04-01T12:46:57.917Z,0.70
2018-04-01T12:47:57.913Z,0.70
2018-04-01T12:48:57.909Z,0.80
2018-04-01T12:49:57.918Z,0.70
2018-04-01T12:50:57.904Z,0.70
2018-04-01T12:51:57.898Z,0.60
2018-04-01T12:52:57.893Z,0.80
2018-04-01T12:53:57.891Z,0.70
2018-04-01T12:54:57.888Z,0.60
2018-04-01T12:55:57.883Z,0.70
2018-04-01T12:56:57.880Z,0.70
2018-04-01T12:57:57.877Z,0.70
2018-04-01T12:58:57.872Z,0.70
2018-04-01T12:59:57.868Z,0.60
2018-04-01T13:00:57.866Z,0.70
2018-04-01T13:01:57.861Z,1.00
2018-04-01T13:02:57.859Z,0.60
2018-04-01T13:03:57.857Z,0.70
2018-04-01T13:04:57.853Z,0.70
2018-04-01T13:05:57.852Z,0.70
2018-04-01T13:06:57.849Z,0.70
2018-04-01T13:07:57.846Z,0.70
2018-04-01T13:08:57.845Z,0.80
2018-04-01T13:09:57.848Z,0.70
2018-04-01T13:10:57.840Z,0.60
2018-04-01T13:11:57.847Z,0.70
2018-04-01T13:12:57.837Z,0.60
2018-04-01T13:13:57.841Z,0.90
2018-04-01T13:14:57.837Z,0.70
2018-04-01T13:15:57.834Z,0.70
2018-04-01T13:16:57.833Z,0.60
2018-04-01T13:17:57.833Z,0.70